sensor_id;sensor_type;location;lat;lon;timestamp;P1;durP1;ratioP1;P2;durP2;ratioP2
18822;SDS011;9540;51.550;7.980;2022-10-17T00:01:27;4.75;;;4.25;;
18822;SDS011;9540;51.550;7.980;2022-10-17T00:03:56;6.43;;;4.88;;
18822;SDS011;9540;51.550;7.980;2022-10-17T00:06:23;4.72;;;4.18;;
18822;SDS011;9540;51.550;7.980;2022-10-17T00:08:50;5.88;;;4.38;;
18822;SDS011;9540;51.550;7.980;2022-10-17T00:11:18;8.52;;;4.35;;
18822;SDS011;9540;51.550;7.980;2022-10-17T00:13:46;8.25;;;4.65;;
18822;SDS011;9540;51.550;7.980;2022-10-17T00:16:17;5.28;;;4.20;;
18822;SDS011;9540;51.550;7.980;2022-10-17T00:18:49;6.72;;;4.40;;
18822;SDS011;9540;51.550;7.980;2022-10-17T00:21:18;8.70;;;5.05;;
18822;SDS011;9540;51.550;7.980;2022-10-17T00:23:46;7.80;;;5.20;;
18822;SDS011;9540;51.550;7.980;2022-10-17T00:26:13;8.07;;;5.00;;
18822;SDS011;9540;51.550;7.980;2022-10-17T00:28:41;8.50;;;5.13;;
18822;SDS011;9540;51.550;7.980;2022-10-17T00:31:10;6.93;;;5.18;;
18822;SDS011;9540;51.550;7.980;2022-10-17T00:33:37;7.40;;;4.47;;
18822;SDS011;9540;51.550;7.980;2022-10-17T00:36:05;8.23;;;5.22;;
18822;SDS011;9540;51.550;7.980;2022-10-17T00:38:35;8.93;;;7.05;;
18822;SDS011;9540;51.550;7.980;2022-10-17T00:41:03;11.80;;;7.47;;
18822;SDS011;9540;51.550;7.980;2022-10-17T00:46:20;11.25;;;8.43;;
18822;SDS011;9540;51.550;7.980;2022-10-17T00:48:49;16.90;;;9.82;;
18822;SDS011;9540;51.550;7.980;2022-10-17T00:51:18;15.45;;;10.77;;
18822;SDS011;9540;51.550;7.980;2022-10-17T00:53:51;19.40;;;11.27;;
18822;SDS011;9540;51.550;7.980;2022-10-17T00:56:18;17.58;;;11.02;;
18822;SDS011;9540;51.550;7.980;2022-10-17T00:58:46;14.07;;;10.35;;
18822;SDS011;9540;51.550;7.980;2022-10-17T01:01:13;14.20;;;9.60;;
18822;SDS011;9540;51.550;7.980;2022-10-17T01:03:41;15.00;;;8.65;;
18822;SDS011;9540;51.550;7.980;2022-10-17T01:06:08;17.33;;;8.38;;
18822;SDS011;9540;51.550;7.980;2022-10-17T01:08:35;10.90;;;7.30;;
18822;SDS011;9540;51.550;7.980;2022-10-17T01:11:06;13.52;;;7.22;;
18822;SDS011;9540;51.550;7.980;2022-10-17T01:13:41;7.60;;;6.63;;
18822;SDS011;9540;51.550;7.980;2022-10-17T01:16:15;9.63;;;6.43;;
18822;SDS011;9540;51.550;7.980;2022-10-17T01:18:52;7.90;;;5.82;;
18822;SDS011;9540;51.550;7.980;2022-10-17T01:21:29;9.25;;;5.93;;
18822;SDS011;9540;51.550;7.980;2022-10-17T01:24:13;5.80;;;5.20;;
18822;SDS011;9540;51.550;7.980;2022-10-17T01:27:12;7.85;;;5.38;;
18822;SDS011;9540;51.550;7.980;2022-10-17T01:30:18;5.43;;;4.60;;
18822;SDS011;9540;51.550;7.980;2022-10-17T01:33:11;7.60;;;5.32;;
18822;SDS011;9540;51.550;7.980;2022-10-17T01:35:44;8.10;;;5.07;;
18822;SDS011;9540;51.550;7.980;2022-10-17T01:38:19;5.68;;;4.50;;
18822;SDS011;9540;51.550;7.980;2022-10-17T01:40:51;9.32;;;4.85;;
18822;SDS011;9540;51.550;7.980;2022-10-17T01:43:22;8.55;;;4.65;;
18822;SDS011;9540;51.550;7.980;2022-10-17T01:45:56;10.57;;;5.00;;
18822;SDS011;9540;51.550;7.980;2022-10-17T01:48:29;4.35;;;3.70;;
18822;SDS011;9540;51.550;7.980;2022-10-17T01:51:00;5.05;;;3.80;;
18822;SDS011;9540;51.550;7.980;2022-10-17T01:53:33;5.07;;;4.30;;
18822;SDS011;9540;51.550;7.980;2022-10-17T01:56:03;10.98;;;4.85;;
18822;SDS011;9540;51.550;7.980;2022-10-17T01:58:35;4.50;;;3.95;;
18822;SDS011;9540;51.550;7.980;2022-10-17T02:01:06;4.88;;;3.85;;
18822;SDS011;9540;51.550;7.980;2022-10-17T02:03:37;6.35;;;3.80;;
18822;SDS011;9540;51.550;7.980;2022-10-17T02:06:08;4.07;;;3.65;;
18822;SDS011;9540;51.550;7.980;2022-10-17T02:08:39;7.78;;;4.00;;
18822;SDS011;9540;51.550;7.980;2022-10-17T02:11:08;4.97;;;3.72;;
18822;SDS011;9540;51.550;7.980;2022-10-17T02:13:42;3.80;;;3.40;;
18822;SDS011;9540;51.550;7.980;2022-10-17T02:16:22;6.03;;;3.83;;
18822;SDS011;9540;51.550;7.980;2022-10-17T02:19:13;6.20;;;3.72;;
18822;SDS011;9540;51.550;7.980;2022-10-17T02:21:56;8.35;;;3.75;;
18822;SDS011;9540;51.550;7.980;2022-10-17T02:24:32;3.85;;;3.55;;
18822;SDS011;9540;51.550;7.980;2022-10-17T02:27:11;4.63;;;3.45;;
18822;SDS011;9540;51.550;7.980;2022-10-17T02:29:43;5.22;;;3.72;;
18822;SDS011;9540;51.550;7.980;2022-10-17T02:32:13;4.47;;;3.83;;
18822;SDS011;9540;51.550;7.980;2022-10-17T02:34:47;6.97;;;4.18;;
18822;SDS011;9540;51.550;7.980;2022-10-17T02:37:18;4.10;;;3.70;;
18822;SDS011;9540;51.550;7.980;2022-10-17T02:39:48;7.03;;;3.83;;
18822;SDS011;9540;51.550;7.980;2022-10-17T02:42:17;4.32;;;3.53;;
18822;SDS011;9540;51.550;7.980;2022-10-17T02:44:46;7.20;;;3.42;;
18822;SDS011;9540;51.550;7.980;2022-10-17T02:47:16;7.18;;;3.40;;
18822;SDS011;9540;51.550;7.980;2022-10-17T02:49:50;8.68;;;3.75;;
18822;SDS011;9540;51.550;7.980;2022-10-17T02:52:20;6.25;;;3.40;;
18822;SDS011;9540;51.550;7.980;2022-10-17T02:54:53;3.97;;;3.60;;
18822;SDS011;9540;51.550;7.980;2022-10-17T02:57:26;4.70;;;3.55;;
18822;SDS011;9540;51.550;7.980;2022-10-17T02:59:56;5.85;;;3.40;;
18822;SDS011;9540;51.550;7.980;2022-10-17T03:02:26;6.22;;;3.65;;
18822;SDS011;9540;51.550;7.980;2022-10-17T03:04:55;4.30;;;3.38;;
18822;SDS011;9540;51.550;7.980;2022-10-17T03:07:22;7.60;;;3.58;;
18822;SDS011;9540;51.550;7.980;2022-10-17T03:09:49;4.90;;;3.60;;
18822;SDS011;9540;51.550;7.980;2022-10-17T03:12:16;7.35;;;3.20;;
18822;SDS011;9540;51.550;7.980;2022-10-17T03:14:42;6.20;;;3.47;;
18822;SDS011;9540;51.550;7.980;2022-10-17T03:17:10;11.00;;;3.22;;
18822;SDS011;9540;51.550;7.980;2022-10-17T03:19:37;6.47;;;3.88;;
18822;SDS011;9540;51.550;7.980;2022-10-17T03:22:05;7.50;;;3.78;;
18822;SDS011;9540;51.550;7.980;2022-10-17T03:24:32;7.25;;;3.47;;
18822;SDS011;9540;51.550;7.980;2022-10-17T03:26:59;8.23;;;3.42;;
18822;SDS011;9540;51.550;7.980;2022-10-17T03:29:26;9.23;;;3.53;;
18822;SDS011;9540;51.550;7.980;2022-10-17T03:31:53;9.13;;;3.20;;
18822;SDS011;9540;51.550;7.980;2022-10-17T03:34:20;5.13;;;3.30;;
18822;SDS011;9540;51.550;7.980;2022-10-17T03:36:47;10.25;;;3.38;;
18822;SDS011;9540;51.550;7.980;2022-10-17T03:39:15;5.28;;;3.30;;
18822;SDS011;9540;51.550;7.980;2022-10-17T03:41:42;7.43;;;4.03;;
18822;SDS011;9540;51.550;7.980;2022-10-17T03:44:09;7.32;;;3.67;;
18822;SDS011;9540;51.550;7.980;2022-10-17T03:46:36;5.57;;;3.65;;
18822;SDS011;9540;51.550;7.980;2022-10-17T03:49:04;5.57;;;3.75;;
18822;SDS011;9540;51.550;7.980;2022-10-17T03:51:31;5.22;;;3.25;;
18822;SDS011;9540;51.550;7.980;2022-10-17T03:53:58;8.85;;;3.47;;
18822;SDS011;9540;51.550;7.980;2022-10-17T03:56:27;10.43;;;3.78;;
18822;SDS011;9540;51.550;7.980;2022-10-17T03:58:55;5.53;;;3.20;;
18822;SDS011;9540;51.550;7.980;2022-10-17T04:01:22;7.72;;;3.47;;
18822;SDS011;9540;51.550;7.980;2022-10-17T04:03:49;6.88;;;3.60;;
18822;SDS011;9540;51.550;7.980;2022-10-17T04:06:17;8.15;;;3.58;;
18822;SDS011;9540;51.550;7.980;2022-10-17T04:08:44;3.88;;;3.38;;
18822;SDS011;9540;51.550;7.980;2022-10-17T04:11:12;7.35;;;3.33;;
18822;SDS011;9540;51.550;7.980;2022-10-17T04:13:42;5.10;;;3.38;;
18822;SDS011;9540;51.550;7.980;2022-10-17T04:16:10;9.65;;;3.20;;
18822;SDS011;9540;51.550;7.980;2022-10-17T04:18:39;7.00;;;3.38;;
18822;SDS011;9540;51.550;7.980;2022-10-17T04:21:06;9.95;;;3.75;;
18822;SDS011;9540;51.550;7.980;2022-10-17T04:23:34;8.95;;;3.50;;
18822;SDS011;9540;51.550;7.980;2022-10-17T04:26:02;9.30;;;3.38;;
18822;SDS011;9540;51.550;7.980;2022-10-17T04:28:30;6.80;;;3.28;;
18822;SDS011;9540;51.550;7.980;2022-10-17T04:31:00;9.35;;;3.72;;
18822;SDS011;9540;51.550;7.980;2022-10-17T04:33:28;10.70;;;3.90;;
18822;SDS011;9540;51.550;7.980;2022-10-17T04:35:56;6.53;;;3.63;;
18822;SDS011;9540;51.550;7.980;2022-10-17T04:38:24;6.80;;;4.07;;
18822;SDS011;9540;51.550;7.980;2022-10-17T04:40:51;6.15;;;3.25;;
18822;SDS011;9540;51.550;7.980;2022-10-17T04:43:18;5.40;;;3.10;;
18822;SDS011;9540;51.550;7.980;2022-10-17T04:45:45;17.05;;;3.53;;
18822;SDS011;9540;51.550;7.980;2022-10-17T04:48:13;4.35;;;2.90;;
18822;SDS011;9540;51.550;7.980;2022-10-17T04:50:41;3.97;;;3.40;;
18822;SDS011;9540;51.550;7.980;2022-10-17T04:53:17;5.43;;;3.42;;
18822;SDS011;9540;51.550;7.980;2022-10-17T04:55:44;5.93;;;3.70;;
18822;SDS011;9540;51.550;7.980;2022-10-17T04:58:11;10.30;;;3.25;;
18822;SDS011;9540;51.550;7.980;2022-10-17T05:00:39;7.70;;;3.85;;
18822;SDS011;9540;51.550;7.980;2022-10-17T05:03:06;5.50;;;3.38;;
18822;SDS011;9540;51.550;7.980;2022-10-17T05:05:37;5.65;;;3.58;;
18822;SDS011;9540;51.550;7.980;2022-10-17T05:08:04;6.32;;;3.05;;
18822;SDS011;9540;51.550;7.980;2022-10-17T05:10:34;3.85;;;3.33;;
18822;SDS011;9540;51.550;7.980;2022-10-17T05:13:02;7.97;;;3.80;;
18822;SDS011;9540;51.550;7.980;2022-10-17T05:15:29;6.80;;;3.70;;
18822;SDS011;9540;51.550;7.980;2022-10-17T05:17:56;5.00;;;3.30;;
18822;SDS011;9540;51.550;7.980;2022-10-17T05:20:23;4.97;;;3.55;;
18822;SDS011;9540;51.550;7.980;2022-10-17T05:22:52;6.18;;;3.42;;
18822;SDS011;9540;51.550;7.980;2022-10-17T05:25:20;7.90;;;3.45;;
18822;SDS011;9540;51.550;7.980;2022-10-17T05:27:48;3.60;;;3.30;;
18822;SDS011;9540;51.550;7.980;2022-10-17T05:30:15;9.15;;;3.33;;
18822;SDS011;9540;51.550;7.980;2022-10-17T05:32:42;8.48;;;3.50;;
18822;SDS011;9540;51.550;7.980;2022-10-17T05:35:09;7.50;;;3.78;;
18822;SDS011;9540;51.550;7.980;2022-10-17T05:37:36;4.43;;;3.40;;
18822;SDS011;9540;51.550;7.980;2022-10-17T05:40:05;6.80;;;3.42;;
18822;SDS011;9540;51.550;7.980;2022-10-17T05:42:33;9.23;;;3.60;;
18822;SDS011;9540;51.550;7.980;2022-10-17T05:45:01;3.65;;;3.30;;
18822;SDS011;9540;51.550;7.980;2022-10-17T05:47:28;5.95;;;3.63;;
18822;SDS011;9540;51.550;7.980;2022-10-17T05:49:55;6.43;;;3.50;;
18822;SDS011;9540;51.550;7.980;2022-10-17T05:52:22;14.73;;;3.75;;
18822;SDS011;9540;51.550;7.980;2022-10-17T05:54:49;5.20;;;3.45;;
18822;SDS011;9540;51.550;7.980;2022-10-17T05:57:17;7.38;;;4.03;;
18822;SDS011;9540;51.550;7.980;2022-10-17T05:59:44;8.10;;;3.40;;
18822;SDS011;9540;51.550;7.980;2022-10-17T06:02:11;4.85;;;3.60;;
18822;SDS011;9540;51.550;7.980;2022-10-17T06:04:38;8.88;;;3.72;;
18822;SDS011;9540;51.550;7.980;2022-10-17T06:07:09;8.93;;;4.15;;
18822;SDS011;9540;51.550;7.980;2022-10-17T06:09:37;5.68;;;3.78;;
18822;SDS011;9540;51.550;7.980;2022-10-17T06:12:04;9.38;;;3.60;;
18822;SDS011;9540;51.550;7.980;2022-10-17T06:14:33;6.90;;;3.10;;
18822;SDS011;9540;51.550;7.980;2022-10-17T06:17:00;4.30;;;3.35;;
18822;SDS011;9540;51.550;7.980;2022-10-17T06:19:27;7.80;;;3.63;;
18822;SDS011;9540;51.550;7.980;2022-10-17T06:21:54;7.43;;;3.72;;
18822;SDS011;9540;51.550;7.980;2022-10-17T06:24:21;7.28;;;4.07;;
18822;SDS011;9540;51.550;7.980;2022-10-17T06:26:48;5.90;;;3.20;;
18822;SDS011;9540;51.550;7.980;2022-10-17T06:29:15;8.00;;;3.50;;
18822;SDS011;9540;51.550;7.980;2022-10-17T06:31:44;5.40;;;3.80;;
18822;SDS011;9540;51.550;7.980;2022-10-17T06:34:10;4.80;;;3.53;;
18822;SDS011;9540;51.550;7.980;2022-10-17T06:36:37;5.85;;;3.50;;
18822;SDS011;9540;51.550;7.980;2022-10-17T06:39:04;7.68;;;3.50;;
18822;SDS011;9540;51.550;7.980;2022-10-17T06:41:31;7.97;;;3.67;;
18822;SDS011;9540;51.550;7.980;2022-10-17T06:43:58;7.00;;;3.80;;
18822;SDS011;9540;51.550;7.980;2022-10-17T06:46:25;7.28;;;3.70;;
18822;SDS011;9540;51.550;7.980;2022-10-17T06:48:55;5.50;;;3.15;;
18822;SDS011;9540;51.550;7.980;2022-10-17T06:51:22;5.68;;;3.15;;
18822;SDS011;9540;51.550;7.980;2022-10-17T06:53:49;3.63;;;3.30;;
18822;SDS011;9540;51.550;7.980;2022-10-17T06:56:16;5.03;;;3.30;;
18822;SDS011;9540;51.550;7.980;2022-10-17T06:58:43;8.60;;;3.65;;
18822;SDS011;9540;51.550;7.980;2022-10-17T07:01:12;6.72;;;3.42;;
18822;SDS011;9540;51.550;7.980;2022-10-17T07:03:39;5.45;;;3.53;;
18822;SDS011;9540;51.550;7.980;2022-10-17T07:06:09;5.53;;;3.33;;
18822;SDS011;9540;51.550;7.980;2022-10-17T07:08:36;6.18;;;3.03;;
18822;SDS011;9540;51.550;7.980;2022-10-17T07:11:09;6.32;;;3.30;;
18822;SDS011;9540;51.550;7.980;2022-10-17T07:13:37;6.05;;;3.40;;
18822;SDS011;9540;51.550;7.980;2022-10-17T07:16:04;8.57;;;4.15;;
18822;SDS011;9540;51.550;7.980;2022-10-17T07:18:32;9.02;;;3.80;;
18822;SDS011;9540;51.550;7.980;2022-10-17T07:20:59;6.30;;;3.15;;
18822;SDS011;9540;51.550;7.980;2022-10-17T07:23:28;5.22;;;3.20;;
18822;SDS011;9540;51.550;7.980;2022-10-17T07:25:58;9.00;;;3.30;;
18822;SDS011;9540;51.550;7.980;2022-10-17T07:28:25;9.13;;;3.58;;
18822;SDS011;9540;51.550;7.980;2022-10-17T07:30:52;9.88;;;3.53;;
18822;SDS011;9540;51.550;7.980;2022-10-17T07:33:19;5.82;;;3.00;;
18822;SDS011;9540;51.550;7.980;2022-10-17T07:35:46;7.65;;;3.38;;
18822;SDS011;9540;51.550;7.980;2022-10-17T07:38:13;3.95;;;2.83;;
18822;SDS011;9540;51.550;7.980;2022-10-17T07:40:42;8.13;;;3.50;;
18822;SDS011;9540;51.550;7.980;2022-10-17T07:43:09;6.38;;;3.22;;
18822;SDS011;9540;51.550;7.980;2022-10-17T07:45:36;3.35;;;3.13;;
18822;SDS011;9540;51.550;7.980;2022-10-17T07:48:03;9.20;;;3.38;;
18822;SDS011;9540;51.550;7.980;2022-10-17T07:50:30;5.32;;;3.00;;
18822;SDS011;9540;51.550;7.980;2022-10-17T07:52:57;3.53;;;2.70;;
18822;SDS011;9540;51.550;7.980;2022-10-17T07:55:24;5.38;;;3.47;;
18822;SDS011;9540;51.550;7.980;2022-10-17T07:57:52;6.55;;;2.90;;
18822;SDS011;9540;51.550;7.980;2022-10-17T08:00:19;9.23;;;3.10;;
18822;SDS011;9540;51.550;7.980;2022-10-17T08:02:46;5.70;;;3.30;;
18822;SDS011;9540;51.550;7.980;2022-10-17T08:05:13;6.15;;;3.58;;
18822;SDS011;9540;51.550;7.980;2022-10-17T08:07:40;4.75;;;3.08;;
18822;SDS011;9540;51.550;7.980;2022-10-17T08:10:09;4.88;;;2.80;;
18822;SDS011;9540;51.550;7.980;2022-10-17T08:12:37;8.43;;;3.08;;
18822;SDS011;9540;51.550;7.980;2022-10-17T08:15:06;5.13;;;3.00;;
18822;SDS011;9540;51.550;7.980;2022-10-17T08:17:34;4.93;;;2.78;;
18822;SDS011;9540;51.550;7.980;2022-10-17T08:20:02;4.68;;;2.85;;
18822;SDS011;9540;51.550;7.980;2022-10-17T08:22:29;6.85;;;3.25;;
18822;SDS011;9540;51.550;7.980;2022-10-17T08:24:56;6.72;;;2.90;;
18822;SDS011;9540;51.550;7.980;2022-10-17T08:27:24;5.60;;;2.85;;
18822;SDS011;9540;51.550;7.980;2022-10-17T08:29:52;5.82;;;2.85;;
18822;SDS011;9540;51.550;7.980;2022-10-17T08:32:22;11.00;;;2.95;;
18822;SDS011;9540;51.550;7.980;2022-10-17T08:34:50;6.97;;;3.00;;
18822;SDS011;9540;51.550;7.980;2022-10-17T08:37:17;9.68;;;3.10;;
18822;SDS011;9540;51.550;7.980;2022-10-17T08:39:44;3.25;;;2.78;;
18822;SDS011;9540;51.550;7.980;2022-10-17T08:42:18;9.70;;;3.83;;
18822;SDS011;9540;51.550;7.980;2022-10-17T08:44:56;6.82;;;2.85;;
18822;SDS011;9540;51.550;7.980;2022-10-17T08:47:35;3.45;;;2.80;;
18822;SDS011;9540;51.550;7.980;2022-10-17T08:50:05;11.23;;;3.22;;
18822;SDS011;9540;51.550;7.980;2022-10-17T08:52:38;5.75;;;2.40;;
18822;SDS011;9540;51.550;7.980;2022-10-17T08:55:12;7.47;;;3.17;;
18822;SDS011;9540;51.550;7.980;2022-10-17T08:57:41;5.45;;;2.85;;
18822;SDS011;9540;51.550;7.980;2022-10-17T09:00:12;10.82;;;3.30;;
18822;SDS011;9540;51.550;7.980;2022-10-17T09:02:46;7.90;;;2.95;;
18822;SDS011;9540;51.550;7.980;2022-10-17T09:05:24;3.60;;;2.55;;
18822;SDS011;9540;51.550;7.980;2022-10-17T09:07:58;5.63;;;2.03;;
18822;SDS011;9540;51.550;7.980;2022-10-17T09:10:34;5.25;;;2.58;;
18822;SDS011;9540;51.550;7.980;2022-10-17T09:13:14;6.90;;;2.55;;
18822;SDS011;9540;51.550;7.980;2022-10-17T09:18:41;4.72;;;2.65;;
18822;SDS011;9540;51.550;7.980;2022-10-17T09:21:15;8.18;;;2.90;;
18822;SDS011;9540;51.550;7.980;2022-10-17T09:23:46;9.68;;;2.83;;
18822;SDS011;9540;51.550;7.980;2022-10-17T09:26:16;4.97;;;2.53;;
18822;SDS011;9540;51.550;7.980;2022-10-17T09:28:43;6.68;;;2.65;;
18822;SDS011;9540;51.550;7.980;2022-10-17T09:31:18;5.50;;;2.67;;
18822;SDS011;9540;51.550;7.980;2022-10-17T09:33:49;6.57;;;3.05;;
18822;SDS011;9540;51.550;7.980;2022-10-17T09:36:18;7.55;;;2.58;;
18822;SDS011;9540;51.550;7.980;2022-10-17T09:38:47;8.80;;;2.60;;
18822;SDS011;9540;51.550;7.980;2022-10-17T09:41:18;11.95;;;2.50;;
18822;SDS011;9540;51.550;7.980;2022-10-17T09:43:46;4.28;;;2.42;;
18822;SDS011;9540;51.550;7.980;2022-10-17T09:46:16;8.95;;;2.63;;
18822;SDS011;9540;51.550;7.980;2022-10-17T09:48:50;8.02;;;3.08;;
18822;SDS011;9540;51.550;7.980;2022-10-17T09:51:21;6.63;;;2.70;;
18822;SDS011;9540;51.550;7.980;2022-10-17T09:53:49;5.95;;;2.60;;
18822;SDS011;9540;51.550;7.980;2022-10-17T09:56:20;5.00;;;2.88;;
18822;SDS011;9540;51.550;7.980;2022-10-17T09:58:48;10.90;;;3.08;;
18822;SDS011;9540;51.550;7.980;2022-10-17T10:01:18;5.40;;;3.08;;
18822;SDS011;9540;51.550;7.980;2022-10-17T10:03:47;7.38;;;3.38;;
18822;SDS011;9540;51.550;7.980;2022-10-17T10:06:33;4.30;;;2.70;;
18822;SDS011;9540;51.550;7.980;2022-10-17T10:09:00;6.18;;;2.85;;
18822;SDS011;9540;51.550;7.980;2022-10-17T10:11:43;3.70;;;2.63;;
18822;SDS011;9540;51.550;7.980;2022-10-17T10:14:14;10.32;;;3.47;;
18822;SDS011;9540;51.550;7.980;2022-10-17T10:16:47;7.97;;;3.05;;
18822;SDS011;9540;51.550;7.980;2022-10-17T10:19:23;5.55;;;3.15;;
18822;SDS011;9540;51.550;7.980;2022-10-17T10:21:55;6.43;;;3.00;;
18822;SDS011;9540;51.550;7.980;2022-10-17T10:24:24;6.03;;;2.78;;
18822;SDS011;9540;51.550;7.980;2022-10-17T10:26:52;7.47;;;2.80;;
18822;SDS011;9540;51.550;7.980;2022-10-17T10:29:23;14.07;;;3.42;;
18822;SDS011;9540;51.550;7.980;2022-10-17T10:31:55;7.55;;;2.90;;
18822;SDS011;9540;51.550;7.980;2022-10-17T10:34:33;9.10;;;2.33;;
18822;SDS011;9540;51.550;7.980;2022-10-17T10:37:02;10.48;;;2.45;;
18822;SDS011;9540;51.550;7.980;2022-10-17T10:39:33;6.38;;;3.00;;
18822;SDS011;9540;51.550;7.980;2022-10-17T10:42:07;7.93;;;3.17;;
18822;SDS011;9540;51.550;7.980;2022-10-17T10:44:45;9.88;;;3.15;;
18822;SDS011;9540;51.550;7.980;2022-10-17T10:47:17;10.32;;;3.45;;
18822;SDS011;9540;51.550;7.980;2022-10-17T10:49:51;3.85;;;2.80;;
18822;SDS011;9540;51.550;7.980;2022-10-17T10:52:33;6.55;;;2.78;;
18822;SDS011;9540;51.550;7.980;2022-10-17T10:55:13;8.38;;;2.95;;
18822;SDS011;9540;51.550;7.980;2022-10-17T10:57:46;3.22;;;2.90;;
18822;SDS011;9540;51.550;7.980;2022-10-17T11:00:19;10.27;;;3.08;;
18822;SDS011;9540;51.550;7.980;2022-10-17T11:02:53;9.25;;;3.13;;
18822;SDS011;9540;51.550;7.980;2022-10-17T11:05:33;16.13;;;3.97;;
18822;SDS011;9540;51.550;7.980;2022-10-17T11:08:09;7.65;;;3.13;;
18822;SDS011;9540;51.550;7.980;2022-10-17T11:10:46;7.18;;;2.95;;
18822;SDS011;9540;51.550;7.980;2022-10-17T11:13:25;5.10;;;2.85;;
18822;SDS011;9540;51.550;7.980;2022-10-17T11:15:56;13.48;;;2.85;;
18822;SDS011;9540;51.550;7.980;2022-10-17T11:18:28;6.47;;;2.75;;
18822;SDS011;9540;51.550;7.980;2022-10-17T11:21:03;10.55;;;3.22;;
18822;SDS011;9540;51.550;7.980;2022-10-17T11:23:36;5.78;;;3.10;;
18822;SDS011;9540;51.550;7.980;2022-10-17T11:26:10;3.75;;;2.72;;
18822;SDS011;9540;51.550;7.980;2022-10-17T11:28:42;6.75;;;2.90;;
18822;SDS011;9540;51.550;7.980;2022-10-17T11:31:10;10.60;;;2.28;;
18822;SDS011;9540;51.550;7.980;2022-10-17T11:33:40;3.67;;;3.17;;
18822;SDS011;9540;51.550;7.980;2022-10-17T11:36:13;4.45;;;2.95;;
18822;SDS011;9540;51.550;7.980;2022-10-17T11:38:44;5.55;;;2.85;;
18822;SDS011;9540;51.550;7.980;2022-10-17T11:41:17;4.15;;;2.50;;
18822;SDS011;9540;51.550;7.980;2022-10-17T11:43:49;8.25;;;2.83;;
18822;SDS011;9540;51.550;7.980;2022-10-17T11:46:20;6.07;;;3.03;;
18822;SDS011;9540;51.550;7.980;2022-10-17T11:48:56;4.53;;;2.50;;
18822;SDS011;9540;51.550;7.980;2022-10-17T11:51:29;6.70;;;2.90;;
18822;SDS011;9540;51.550;7.980;2022-10-17T11:54:03;7.22;;;2.88;;
18822;SDS011;9540;51.550;7.980;2022-10-17T11:56:39;7.40;;;3.40;;
18822;SDS011;9540;51.550;7.980;2022-10-17T11:59:17;6.63;;;2.78;;
18822;SDS011;9540;51.550;7.980;2022-10-17T12:02:03;11.07;;;2.40;;
18822;SDS011;9540;51.550;7.980;2022-10-17T12:04:39;3.92;;;2.30;;
18822;SDS011;9540;51.550;7.980;2022-10-17T12:07:21;2.90;;;2.53;;
18822;SDS011;9540;51.550;7.980;2022-10-17T12:09:56;6.45;;;3.03;;
18822;SDS011;9540;51.550;7.980;2022-10-17T12:12:33;6.45;;;2.80;;
18822;SDS011;9540;51.550;7.980;2022-10-17T12:17:54;5.20;;;2.95;;
18822;SDS011;9540;51.550;7.980;2022-10-17T12:20:24;6.28;;;2.80;;
18822;SDS011;9540;51.550;7.980;2022-10-17T12:22:59;10.18;;;3.35;;
18822;SDS011;9540;51.550;7.980;2022-10-17T12:25:32;6.38;;;2.75;;
18822;SDS011;9540;51.550;7.980;2022-10-17T12:28:10;6.22;;;3.15;;
18822;SDS011;9540;51.550;7.980;2022-10-17T12:30:53;6.50;;;2.95;;
18822;SDS011;9540;51.550;7.980;2022-10-17T12:33:24;4.75;;;2.42;;
18822;SDS011;9540;51.550;7.980;2022-10-17T12:42:30;8.80;;;2.92;;
18822;SDS011;9540;51.550;7.980;2022-10-17T12:44:58;9.63;;;2.83;;
18822;SDS011;9540;51.550;7.980;2022-10-17T12:47:26;9.38;;;2.65;;
18822;SDS011;9540;51.550;7.980;2022-10-17T12:50:01;3.53;;;2.40;;
18822;SDS011;9540;51.550;7.980;2022-10-17T12:55:30;5.25;;;2.88;;
18822;SDS011;9540;51.550;7.980;2022-10-17T12:57:59;7.40;;;3.35;;
18822;SDS011;9540;51.550;7.980;2022-10-17T13:00:31;9.32;;;2.38;;
18822;SDS011;9540;51.550;7.980;2022-10-17T13:03:02;6.45;;;2.72;;
18822;SDS011;9540;51.550;7.980;2022-10-17T13:05:38;5.35;;;2.72;;
18822;SDS011;9540;51.550;7.980;2022-10-17T13:08:11;8.98;;;3.15;;
18822;SDS011;9540;51.550;7.980;2022-10-17T13:10:44;9.68;;;3.33;;
18822;SDS011;9540;51.550;7.980;2022-10-17T13:13:16;6.53;;;2.80;;
18822;SDS011;9540;51.550;7.980;2022-10-17T13:15:46;7.35;;;2.90;;
18822;SDS011;9540;51.550;7.980;2022-10-17T13:18:18;4.40;;;2.60;;
18822;SDS011;9540;51.550;7.980;2022-10-17T13:20:56;9.10;;;2.95;;
18822;SDS011;9540;51.550;7.980;2022-10-17T13:23:25;11.18;;;3.33;;
18822;SDS011;9540;51.550;7.980;2022-10-17T13:26:01;6.68;;;3.17;;
18822;SDS011;9540;51.550;7.980;2022-10-17T13:28:35;2.90;;;2.65;;
18822;SDS011;9540;51.550;7.980;2022-10-17T13:31:02;7.22;;;3.00;;
18822;SDS011;9540;51.550;7.980;2022-10-17T13:33:33;8.63;;;3.15;;
18822;SDS011;9540;51.550;7.980;2022-10-17T13:36:03;9.07;;;2.90;;
18822;SDS011;9540;51.550;7.980;2022-10-17T13:38:33;9.07;;;2.78;;
18822;SDS011;9540;51.550;7.980;2022-10-17T13:41:01;5.57;;;2.70;;
18822;SDS011;9540;51.550;7.980;2022-10-17T13:43:29;8.48;;;2.58;;
18822;SDS011;9540;51.550;7.980;2022-10-17T13:46:00;4.03;;;2.75;;
18822;SDS011;9540;51.550;7.980;2022-10-17T13:48:30;6.70;;;2.85;;
18822;SDS011;9540;51.550;7.980;2022-10-17T13:51:00;10.02;;;2.97;;
18822;SDS011;9540;51.550;7.980;2022-10-17T13:53:30;5.25;;;2.90;;
18822;SDS011;9540;51.550;7.980;2022-10-17T13:56:00;8.98;;;3.35;;
18822;SDS011;9540;51.550;7.980;2022-10-17T13:58:36;11.65;;;2.97;;
18822;SDS011;9540;51.550;7.980;2022-10-17T14:01:07;5.72;;;2.92;;
18822;SDS011;9540;51.550;7.980;2022-10-17T14:03:34;5.22;;;2.75;;
18822;SDS011;9540;51.550;7.980;2022-10-17T14:06:07;12.25;;;3.00;;
18822;SDS011;9540;51.550;7.980;2022-10-17T14:08:45;11.07;;;3.13;;
18822;SDS011;9540;51.550;7.980;2022-10-17T14:11:21;7.22;;;2.80;;
18822;SDS011;9540;51.550;7.980;2022-10-17T14:13:51;8.45;;;3.15;;
18822;SDS011;9540;51.550;7.980;2022-10-17T14:16:21;7.43;;;3.22;;
18822;SDS011;9540;51.550;7.980;2022-10-17T14:18:49;6.72;;;2.90;;
18822;SDS011;9540;51.550;7.980;2022-10-17T14:21:18;4.20;;;2.75;;
18822;SDS011;9540;51.550;7.980;2022-10-17T14:23:46;8.25;;;3.30;;
18822;SDS011;9540;51.550;7.980;2022-10-17T14:26:15;5.15;;;2.55;;
18822;SDS011;9540;51.550;7.980;2022-10-17T14:28:44;5.53;;;2.95;;
18822;SDS011;9540;51.550;7.980;2022-10-17T14:31:24;6.30;;;3.00;;
18822;SDS011;9540;51.550;7.980;2022-10-17T14:33:55;5.70;;;2.95;;
18822;SDS011;9540;51.550;7.980;2022-10-17T14:36:32;5.05;;;2.45;;
18822;SDS011;9540;51.550;7.980;2022-10-17T14:39:02;5.20;;;3.10;;
18822;SDS011;9540;51.550;7.980;2022-10-17T14:41:32;6.47;;;2.90;;
18822;SDS011;9540;51.550;7.980;2022-10-17T14:44:02;10.20;;;3.17;;
18822;SDS011;9540;51.550;7.980;2022-10-17T14:46:32;6.65;;;2.60;;
18822;SDS011;9540;51.550;7.980;2022-10-17T14:49:02;6.47;;;2.72;;
18822;SDS011;9540;51.550;7.980;2022-10-17T14:51:32;8.77;;;3.22;;
18822;SDS011;9540;51.550;7.980;2022-10-17T14:54:02;9.70;;;3.22;;
18822;SDS011;9540;51.550;7.980;2022-10-17T14:56:42;9.05;;;3.15;;
18822;SDS011;9540;51.550;7.980;2022-10-17T14:59:15;6.72;;;2.97;;
18822;SDS011;9540;51.550;7.980;2022-10-17T15:01:48;12.20;;;2.80;;
18822;SDS011;9540;51.550;7.980;2022-10-17T15:04:15;8.10;;;3.10;;
18822;SDS011;9540;51.550;7.980;2022-10-17T15:06:42;7.00;;;2.88;;
18822;SDS011;9540;51.550;7.980;2022-10-17T15:09:10;6.88;;;2.60;;
18822;SDS011;9540;51.550;7.980;2022-10-17T15:11:37;4.45;;;2.47;;
18822;SDS011;9540;51.550;7.980;2022-10-17T15:14:04;7.43;;;3.10;;
18822;SDS011;9540;51.550;7.980;2022-10-17T15:16:31;11.68;;;3.08;;
18822;SDS011;9540;51.550;7.980;2022-10-17T15:19:01;8.68;;;2.88;;
18822;SDS011;9540;51.550;7.980;2022-10-17T15:21:29;6.10;;;3.33;;
18822;SDS011;9540;51.550;7.980;2022-10-17T15:23:56;6.45;;;2.72;;
18822;SDS011;9540;51.550;7.980;2022-10-17T15:26:26;6.57;;;3.38;;
18822;SDS011;9540;51.550;7.980;2022-10-17T15:28:56;8.85;;;2.75;;
18822;SDS011;9540;51.550;7.980;2022-10-17T15:31:24;9.82;;;5.78;;
18822;SDS011;9540;51.550;7.980;2022-10-17T15:33:52;15.25;;;8.32;;
18822;SDS011;9540;51.550;7.980;2022-10-17T15:36:21;9.95;;;4.75;;
18822;SDS011;9540;51.550;7.980;2022-10-17T15:38:51;9.70;;;4.03;;